Larroque, Argentina
Current Conditions -  °F | °C
As of 10:00 AM on Sunday 23 Nov 2014 (Local Time) from SADF Reporting Station
Clear Clear  
Wind Chill: 73°   Ceiling: Unl
Heat Index: 73°   Visibility: 6mi
Dew Point: 59°   Wind: 8mph
Humidity: 61%   Direction: 320°NW
Pressure: 29.88"   Gusts: NA
Location:  33.03°S, 59.02°W
Report Text: SADF 231300Z 32007KT CAVOK 23/15 Q1012
Loading
Personal Weather Stations






























Interactive Weather Map New forecast layout! Learn more

10-Day Weather Forecast

Advertisements
Track Severe Weather on mobile